createdAt,value
2024-04-06T00:00:56.369Z,9.96
2024-04-06T00:01:56.363Z,9.95
2024-04-06T00:02:56.317Z,9.98
2024-04-06T00:03:56.319Z,9.95
2024-04-06T00:04:56.343Z,9.95
2024-04-06T00:05:56.318Z,9.96
2024-04-06T00:06:56.323Z,9.95
2024-04-06T00:08:06.015Z,9.95
2024-04-06T00:08:56.277Z,9.93
2024-04-06T00:09:56.269Z,9.92
2024-04-06T00:10:56.255Z,9.88
2024-04-06T00:11:56.263Z,9.83
2024-04-06T00:12:56.228Z,9.78
2024-04-06T00:13:56.228Z,9.74
2024-04-06T00:14:56.214Z,9.71
2024-04-06T00:15:56.209Z,9.70
2024-04-06T00:16:56.201Z,9.68
2024-04-06T00:17:56.180Z,9.68
2024-04-06T00:18:56.172Z,9.65
2024-04-06T00:19:56.151Z,9.65
2024-04-06T00:20:56.145Z,9.63
2024-04-06T00:21:56.128Z,9.63
2024-04-06T00:22:56.106Z,9.63
2024-04-06T00:23:56.100Z,9.60
2024-04-06T00:24:56.084Z,9.59
2024-04-06T00:25:56.088Z,9.58
2024-04-06T00:26:56.060Z,9.55
2024-04-06T00:27:56.097Z,9.50
2024-04-06T00:28:56.048Z,9.49
2024-04-06T00:29:56.041Z,9.48
2024-04-06T00:30:56.030Z,9.42
2024-04-06T00:31:56.023Z,9.40
2024-04-06T00:32:56.011Z,9.37
2024-04-06T00:33:56.015Z,9.35
2024-04-06T00:34:55.966Z,9.34
2024-04-06T00:35:55.979Z,9.32
2024-04-06T00:36:55.962Z,9.32
2024-04-06T00:37:55.962Z,9.32
2024-04-06T00:38:55.934Z,9.27
2024-04-06T00:39:56.001Z,9.26
2024-04-06T00:40:55.931Z,9.23
2024-04-06T00:41:55.909Z,9.23
2024-04-06T00:42:55.863Z,9.22
2024-04-06T00:43:55.874Z,9.20
2024-04-06T00:44:55.868Z,9.19
2024-04-06T00:45:55.875Z,9.20
2024-04-06T00:46:55.844Z,9.20
2024-04-06T00:47:55.840Z,9.20
2024-04-06T00:48:55.830Z,9.19
2024-04-06T00:49:55.840Z,9.20
2024-04-06T00:50:55.794Z,9.20
2024-04-06T00:51:55.810Z,9.19
2024-04-06T00:52:55.774Z,9.19
2024-04-06T00:53:55.772Z,9.16
2024-04-06T00:54:55.757Z,9.15
2024-04-06T00:55:55.720Z,9.12
2024-04-06T00:56:55.734Z,9.10
2024-04-06T00:57:55.728Z,9.10
2024-04-06T00:58:55.718Z,9.08
2024-04-06T00:59:55.707Z,9.06
2024-04-06T01:00:55.690Z,9.06
2024-04-06T01:02:04.108Z,9.04
2024-04-06T01:02:55.668Z,9.01
2024-04-06T01:03:55.663Z,9.03
2024-04-06T01:04:55.640Z,9.01
2024-04-06T01:05:55.621Z,9.00
2024-04-06T01:06:55.601Z,9.00
2024-04-06T01:07:55.593Z,8.98
2024-04-06T01:08:55.593Z,9.00
2024-04-06T01:09:55.583Z,8.97
2024-04-06T01:10:55.568Z,8.96
2024-04-06T01:11:55.556Z,8.98
2024-04-06T01:12:55.552Z,8.94
2024-04-06T01:13:55.520Z,8.91
2024-04-06T01:14:55.513Z,8.88
2024-04-06T01:15:55.518Z,8.86
2024-04-06T01:16:55.496Z,8.85
2024-04-06T01:17:55.456Z,8.85
2024-04-06T01:18:55.470Z,8.83
2024-04-06T01:19:55.456Z,8.82
2024-04-06T01:20:55.451Z,8.82
2024-04-06T01:21:55.470Z,8.80
2024-04-06T01:22:55.435Z,8.80
2024-04-06T01:23:55.431Z,8.73
2024-04-06T01:24:55.411Z,8.71
2024-04-06T01:25:55.405Z,8.67
2024-04-06T01:26:55.468Z,8.64
2024-04-06T01:27:55.443Z,8.64
2024-04-06T01:28:55.424Z,8.63
2024-04-06T01:29:55.413Z,8.60
2024-04-06T01:30:55.433Z,8.57
2024-04-06T01:31:55.432Z,8.54
2024-04-06T01:32:55.453Z,8.54
2024-04-06T01:33:55.319Z,8.50
2024-04-06T01:34:55.298Z,8.47
2024-04-06T01:35:55.288Z,8.45
2024-04-06T01:36:55.296Z,8.45
2024-04-06T01:37:55.276Z,8.39
2024-04-06T01:38:55.255Z,8.36
2024-04-06T01:39:55.243Z,8.36
2024-04-06T01:40:55.236Z,8.36
2024-04-06T01:41:55.240Z,8.34
2024-04-06T01:42:55.212Z,8.31
2024-04-06T01:43:55.182Z,8.28
2024-04-06T01:44:55.194Z,8.25
2024-04-06T01:45:55.195Z,8.25
2024-04-06T01:46:55.163Z,8.24
2024-04-06T01:47:55.158Z,8.24
2024-04-06T01:48:55.137Z,8.21
2024-04-06T01:49:55.148Z,8.20
2024-04-06T01:50:55.122Z,8.21
2024-04-06T01:51:55.121Z,8.21
2024-04-06T01:52:55.098Z,8.18
2024-04-06T01:53:55.104Z,8.14
2024-04-06T01:54:55.091Z,8.14
2024-04-06T01:55:55.065Z,8.13
2024-04-06T01:56:55.056Z,8.13
2024-04-06T01:57:55.057Z,8.12
2024-04-06T01:58:55.033Z,8.09
2024-04-06T01:59:55.027Z,8.09
2024-04-06T02:00:55.018Z,8.06
2024-04-06T02:01:54.996Z,8.07
2024-04-06T02:02:54.994Z,8.06
2024-04-06T02:03:54.995Z,8.03
2024-04-06T02:04:54.964Z,8.02
2024-04-06T02:05:54.983Z,8.00
2024-04-06T02:06:54.953Z,7.96
2024-04-06T02:07:54.935Z,7.99
2024-04-06T02:08:54.926Z,7.92
2024-04-06T02:09:54.906Z,7.88
2024-04-06T02:10:54.885Z,7.88
2024-04-06T02:11:54.872Z,7.84
2024-04-06T02:12:54.853Z,7.81
2024-04-06T02:13:54.864Z,7.81
2024-04-06T02:14:54.846Z,7.79
2024-04-06T02:15:54.853Z,7.77
2024-04-06T02:16:54.818Z,7.76
2024-04-06T02:17:54.807Z,7.74
2024-04-06T02:18:54.794Z,7.74
2024-04-06T02:19:54.780Z,7.74
2024-04-06T02:20:54.789Z,7.76
2024-04-06T02:21:54.766Z,7.77
2024-04-06T02:22:54.717Z,7.76
2024-04-06T02:23:54.738Z,7.76
2024-04-06T02:24:54.695Z,7.77
2024-04-06T02:25:54.726Z,7.77
2024-04-06T02:26:54.713Z,7.81
2024-04-06T02:27:54.791Z,7.81
2024-04-06T02:28:54.707Z,7.82
2024-04-06T02:29:54.686Z,7.84
2024-04-06T02:30:54.673Z,7.82
2024-04-06T02:31:54.658Z,7.81
2024-04-06T02:32:54.644Z,7.81
2024-04-06T02:33:54.632Z,7.81
2024-04-06T02:34:54.651Z,7.84
2024-04-06T02:35:54.633Z,7.84
2024-04-06T02:36:54.616Z,7.82
2024-04-06T02:37:54.603Z,7.82
2024-04-06T02:38:54.605Z,7.84
2024-04-06T02:39:54.580Z,7.84
2024-04-06T02:40:54.559Z,7.82
2024-04-06T02:41:54.557Z,7.81
2024-04-06T02:42:54.528Z,7.82
2024-04-06T02:43:54.524Z,7.89
2024-04-06T02:44:54.527Z,7.91
2024-04-06T02:45:54.509Z,7.86
2024-04-06T02:46:54.493Z,7.85
2024-04-06T02:47:54.443Z,7.86
2024-04-06T02:48:54.472Z,7.89
2024-04-06T02:49:54.456Z,7.95
2024-04-06T02:50:54.468Z,7.92
2024-04-06T02:51:54.427Z,7.94
2024-04-06T02:52:54.429Z,7.99
2024-04-06T02:53:54.411Z,8.02
2024-04-06T02:54:54.397Z,8.03
2024-04-06T02:55:54.391Z,8.07
2024-04-06T02:56:54.376Z,8.07
2024-04-06T02:57:54.358Z,8.03
2024-04-06T02:58:54.368Z,7.96
2024-04-06T02:59:54.341Z,7.94
2024-04-06T03:00:54.296Z,7.91
2024-04-06T03:01:54.306Z,7.88
2024-04-06T03:02:54.309Z,7.86
2024-04-06T03:03:54.299Z,7.79
2024-04-06T03:04:54.299Z,7.77
2024-04-06T03:05:54.272Z,7.76
2024-04-06T03:06:54.266Z,7.76
2024-04-06T03:07:54.247Z,7.74
2024-04-06T03:08:54.273Z,7.70
2024-04-06T03:09:54.230Z,7.69
2024-04-06T03:10:54.215Z,7.71
2024-04-06T03:11:54.238Z,7.70
2024-04-06T03:12:54.219Z,7.71
2024-04-06T03:13:54.197Z,7.73
2024-04-06T03:14:54.192Z,7.73
2024-04-06T03:15:54.188Z,7.70
2024-04-06T03:16:54.155Z,7.70
2024-04-06T03:17:54.143Z,7.71
2024-04-06T03:18:54.147Z,7.69
2024-04-06T03:19:54.121Z,7.69
2024-04-06T03:20:54.114Z,7.69
2024-04-06T03:21:54.099Z,7.66
2024-04-06T03:22:54.083Z,7.63
2024-04-06T03:23:54.086Z,7.66
2024-04-06T03:24:54.068Z,7.63
2024-04-06T03:25:54.068Z,7.67
2024-04-06T03:26:54.059Z,7.66
2024-04-06T03:27:54.025Z,7.66
2024-04-06T03:28:54.028Z,7.66
2024-04-06T03:29:54.009Z,7.60
2024-04-06T03:30:54.014Z,7.62
2024-04-06T03:31:53.985Z,7.60
2024-04-06T03:32:53.975Z,7.60
2024-04-06T03:33:53.969Z,7.57
2024-04-06T03:34:53.918Z,7.55
2024-04-06T03:35:53.905Z,7.54
2024-04-06T03:36:53.934Z,7.54
2024-04-06T03:37:53.922Z,7.54
2024-04-06T03:38:53.903Z,7.52
2024-04-06T03:39:53.883Z,7.52
2024-04-06T03:40:53.873Z,7.50
2024-04-06T03:41:53.845Z,7.48
2024-04-06T03:42:53.851Z,7.47
2024-04-06T03:43:53.850Z,7.48
2024-04-06T03:44:53.857Z,7.45
2024-04-06T03:45:53.838Z,7.42
2024-04-06T03:46:53.807Z,7.42
2024-04-06T03:47:53.806Z,7.42
2024-04-06T03:48:53.798Z,7.41
2024-04-06T03:49:53.760Z,7.41
2024-04-06T03:50:53.770Z,7.39
2024-04-06T03:51:53.755Z,7.37
2024-04-06T03:52:53.718Z,7.37
2024-04-06T03:53:53.754Z,7.34
2024-04-06T03:54:53.726Z,7.32
2024-04-06T03:55:53.727Z,7.29
2024-04-06T03:56:53.691Z,7.27
2024-04-06T03:57:53.691Z,7.24
2024-04-06T03:58:53.679Z,7.23
2024-04-06T03:59:53.623Z,7.21
2024-04-06T04:00:53.641Z,7.19
2024-04-06T04:01:53.645Z,7.21
2024-04-06T04:02:53.621Z,7.21
2024-04-06T04:03:53.616Z,7.21
2024-04-06T04:04:53.605Z,7.21
2024-04-06T04:05:53.571Z,7.21
2024-04-06T04:06:53.574Z,7.19
2024-04-06T04:07:53.568Z,7.18
2024-04-06T04:08:53.564Z,7.12
2024-04-06T04:09:53.521Z,7.09
2024-04-06T04:10:53.539Z,7.08
2024-04-06T04:11:53.534Z,7.07
2024-04-06T04:12:53.518Z,7.07
2024-04-06T04:13:53.500Z,7.08
2024-04-06T04:14:53.475Z,7.07
2024-04-06T04:15:53.484Z,6.99
2024-04-06T04:16:53.458Z,6.94
2024-04-06T04:17:53.467Z,6.93
2024-04-06T04:18:53.455Z,6.94
2024-04-06T04:19:53.449Z,6.97
2024-04-06T04:20:53.441Z,6.97
2024-04-06T04:21:53.424Z,6.96
2024-04-06T04:22:53.415Z,6.93
2024-04-06T04:23:53.396Z,6.91
2024-04-06T04:24:53.390Z,6.90
2024-04-06T04:25:53.375Z,6.87
2024-04-06T04:26:53.363Z,6.81
2024-04-06T04:27:53.350Z,6.79
2024-04-06T04:28:53.342Z,6.76
2024-04-06T04:29:53.335Z,6.73
2024-04-06T04:30:53.322Z,6.71
2024-04-06T04:31:53.309Z,6.71
2024-04-06T04:32:53.301Z,6.71
2024-04-06T04:33:53.275Z,6.69
2024-04-06T04:34:53.266Z,6.69
2024-04-06T04:35:53.258Z,6.68
2024-04-06T04:36:53.295Z,6.69
2024-04-06T04:37:53.245Z,6.71
2024-04-06T04:38:53.219Z,6.71
2024-04-06T04:39:53.197Z,6.72
2024-04-06T04:40:53.194Z,6.73
2024-04-06T04:41:53.184Z,6.73
2024-04-06T04:42:53.177Z,6.73
2024-04-06T04:43:53.170Z,6.69
2024-04-06T04:44:53.703Z,6.71
2024-04-06T04:45:53.153Z,6.69
2024-04-06T04:46:53.147Z,6.71
2024-04-06T04:47:53.129Z,6.72
2024-04-06T04:48:53.127Z,6.72
2024-04-06T04:49:53.111Z,6.73
2024-04-06T04:50:53.102Z,6.72
2024-04-06T04:51:53.075Z,6.75
2024-04-06T04:52:53.079Z,6.76
2024-04-06T04:53:53.053Z,6.78
2024-04-06T04:54:53.052Z,6.75
2024-04-06T04:55:53.022Z,6.73
2024-04-06T04:56:53.013Z,6.75
2024-04-06T04:57:53.005Z,6.73
2024-04-06T04:58:52.998Z,6.71
2024-04-06T04:59:52.980Z,6.71
2024-04-06T05:00:52.974Z,6.64
2024-04-06T05:01:52.983Z,6.64
2024-04-06T05:02:52.953Z,6.64
2024-04-06T05:03:52.943Z,6.64
2024-04-06T05:04:52.934Z,6.64
2024-04-06T05:05:52.946Z,6.61
2024-04-06T05:06:52.920Z,6.58
2024-04-06T05:07:52.900Z,6.58
2024-04-06T05:08:52.912Z,6.58
2024-04-06T05:09:52.885Z,6.58
2024-04-06T05:10:52.872Z,6.60
2024-04-06T05:11:52.861Z,6.60
2024-04-06T05:12:52.854Z,6.61
2024-04-06T05:13:52.850Z,6.61
2024-04-06T05:14:52.822Z,6.60
2024-04-06T05:15:52.805Z,6.57
2024-04-06T05:16:52.817Z,6.55
2024-04-06T05:17:52.802Z,6.57
2024-04-06T05:18:52.780Z,6.57
2024-04-06T05:19:52.738Z,6.58
2024-04-06T05:20:52.769Z,6.58
2024-04-06T05:21:52.746Z,6.58
2024-04-06T05:22:52.738Z,6.58
2024-04-06T05:23:52.724Z,6.53
2024-04-06T05:24:52.716Z,6.51
2024-04-06T05:25:52.702Z,6.51
2024-04-06T05:26:52.696Z,6.53
2024-04-06T05:27:52.647Z,6.53
2024-04-06T05:28:52.672Z,6.54
2024-04-06T05:29:52.667Z,6.57
2024-04-06T05:30:52.647Z,6.57
2024-04-06T05:31:52.605Z,6.57
2024-04-06T05:32:52.633Z,6.60
2024-04-06T05:33:52.606Z,6.61
2024-04-06T05:34:52.579Z,6.60
2024-04-06T05:35:52.589Z,6.61
2024-04-06T05:36:52.585Z,6.63
2024-04-06T05:37:52.570Z,6.63
2024-04-06T05:38:52.555Z,6.64
2024-04-06T05:39:52.533Z,6.64
2024-04-06T05:40:52.543Z,6.61
2024-04-06T05:41:52.525Z,6.58
2024-04-06T05:42:52.541Z,6.58
2024-04-06T05:43:52.490Z,6.61
2024-04-06T05:44:52.483Z,6.63
2024-04-06T05:45:52.481Z,6.64
2024-04-06T05:46:55.090Z,6.64
2024-04-06T05:47:52.471Z,6.63
2024-04-06T05:48:52.460Z,6.65
2024-04-06T05:49:52.401Z,6.65
2024-04-06T05:50:52.408Z,6.68
2024-04-06T05:51:52.407Z,6.68
2024-04-06T05:52:52.387Z,6.69
2024-04-06T05:53:52.367Z,6.72
2024-04-06T05:54:52.363Z,6.75
2024-04-06T05:55:52.356Z,6.76
2024-04-06T05:56:52.336Z,6.73
2024-04-06T05:57:52.353Z,6.75
2024-04-06T05:58:52.320Z,6.72
2024-04-06T05:59:52.300Z,6.73
2024-04-06T06:00:52.302Z,6.73
2024-04-06T06:01:52.279Z,6.76
2024-04-06T06:02:52.273Z,6.78
2024-04-06T06:03:52.282Z,6.81
2024-04-06T06:04:52.260Z,6.79
2024-04-06T06:05:52.241Z,6.79
2024-04-06T06:06:52.246Z,6.81
2024-04-06T06:07:52.200Z,6.82
2024-04-06T06:08:52.196Z,6.86
2024-04-06T06:09:52.207Z,6.87
2024-04-06T06:10:52.195Z,6.89
2024-04-06T06:11:52.182Z,6.90
2024-04-06T06:12:52.170Z,6.91
2024-04-06T06:13:52.164Z,6.93
2024-04-06T06:14:52.162Z,6.96
2024-04-06T06:15:52.146Z,6.97
2024-04-06T06:16:52.133Z,6.97
2024-04-06T06:17:52.112Z,6.97
2024-04-06T06:18:52.111Z,6.99
2024-04-06T06:19:52.092Z,6.94
2024-04-06T06:20:52.077Z,6.96
2024-04-06T06:21:52.073Z,6.97
2024-04-06T06:22:52.066Z,7.01
2024-04-06T06:23:52.053Z,7.04
2024-04-06T06:24:52.011Z,7.05
2024-04-06T06:25:52.019Z,7.08
2024-04-06T06:26:52.018Z,7.09
2024-04-06T06:27:52.019Z,7.12
2024-04-06T06:28:51.992Z,7.14
2024-04-06T06:29:51.974Z,7.18
2024-04-06T06:30:51.965Z,7.18
2024-04-06T06:31:51.943Z,7.19
2024-04-06T06:32:51.947Z,7.21
2024-04-06T06:33:51.940Z,7.23
2024-04-06T06:34:51.925Z,7.29
2024-04-06T06:37:53.359Z,7.36
2024-04-06T06:40:51.863Z,7.44
2024-04-06T06:41:51.844Z,7.45
2024-04-06T06:42:51.836Z,7.44
2024-04-06T06:43:51.811Z,7.47
2024-04-06T06:44:51.832Z,7.50
2024-04-06T06:45:51.804Z,7.51
2024-04-06T06:46:51.793Z,7.52
2024-04-06T06:47:51.765Z,7.54
2024-04-06T06:48:51.765Z,7.55
2024-04-06T06:49:51.727Z,7.58
2024-04-06T06:50:51.750Z,7.62
2024-04-06T06:51:51.721Z,7.66
2024-04-06T06:52:51.709Z,7.67
2024-04-06T06:53:51.685Z,7.70
2024-04-06T06:54:51.687Z,7.73
2024-04-06T06:55:51.671Z,7.76
2024-04-06T06:56:51.661Z,7.77
2024-04-06T06:57:51.646Z,7.81
2024-04-06T06:58:51.641Z,7.82
2024-04-06T07:00:51.727Z,7.88
2024-04-06T07:01:51.626Z,7.91
2024-04-06T07:02:51.619Z,7.94
2024-04-06T07:03:51.596Z,7.99
2024-04-06T07:04:51.577Z,8.00
2024-04-06T07:05:51.591Z,8.04
2024-04-06T07:07:51.544Z,8.10
2024-04-06T07:09:51.524Z,8.21
2024-04-06T07:10:51.508Z,8.25
2024-04-06T07:11:51.510Z,8.29
2024-04-06T07:12:51.452Z,8.34
2024-04-06T07:13:51.459Z,8.37
2024-04-06T07:14:51.458Z,8.43
2024-04-06T07:15:51.444Z,8.50
2024-04-06T07:16:51.441Z,8.55
2024-04-06T07:17:51.458Z,8.58
2024-04-06T07:18:51.427Z,8.64
2024-04-06T07:19:51.420Z,8.68
2024-04-06T07:20:51.396Z,8.75
2024-04-06T07:21:51.390Z,8.79
2024-04-06T07:22:51.373Z,8.82
2024-04-06T07:23:51.378Z,8.91
2024-04-06T07:24:51.353Z,8.96
2024-04-06T07:25:51.370Z,9.00
2024-04-06T07:26:51.343Z,9.04
2024-04-06T07:27:51.320Z,9.12
2024-04-06T07:28:51.329Z,9.13
2024-04-06T07:29:51.296Z,9.19
2024-04-06T07:30:51.310Z,9.24
2024-04-06T07:31:51.288Z,9.30
2024-04-06T07:32:52.460Z,9.37
2024-04-06T07:33:51.284Z,9.45
2024-04-06T07:34:51.233Z,9.53
2024-04-06T07:35:51.260Z,9.63
2024-04-06T07:36:51.229Z,9.71
2024-04-06T07:37:51.219Z,9.78
2024-04-06T07:39:51.169Z,9.96
2024-04-06T07:40:51.170Z,10.02
2024-04-06T07:41:51.166Z,10.09
2024-04-06T07:42:51.156Z,10.11
2024-04-06T07:43:51.153Z,10.17
2024-04-06T07:44:51.134Z,10.29
2024-04-06T07:45:51.124Z,10.36
2024-04-06T07:46:51.119Z,10.44
2024-04-06T07:47:51.086Z,10.55
2024-04-06T07:48:51.055Z,10.63
2024-04-06T07:49:51.062Z,10.69
2024-04-06T07:50:51.050Z,10.80
2024-04-06T07:51:51.052Z,10.87
2024-04-06T07:52:53.696Z,10.90
2024-04-06T07:53:51.017Z,10.94
2024-04-06T07:54:51.006Z,11.03
2024-04-06T07:55:51.025Z,11.08
2024-04-06T07:56:50.991Z,11.13
2024-04-06T07:57:50.975Z,11.19
2024-04-06T07:58:50.977Z,11.21
2024-04-06T07:59:54.302Z,11.28
2024-04-06T08:00:50.950Z,11.36
2024-04-06T08:01:50.936Z,11.45
2024-04-06T08:02:50.903Z,11.51
2024-04-06T08:03:50.933Z,11.60
2024-04-06T08:04:50.899Z,11.78
2024-04-06T08:05:50.939Z,11.85
2024-04-06T08:06:50.892Z,11.96
2024-04-06T08:07:50.860Z,12.01
2024-04-06T08:08:50.858Z,12.18
2024-04-06T08:09:50.873Z,12.38
2024-04-06T08:10:50.814Z,12.52
2024-04-06T08:11:50.812Z,12.63
2024-04-06T08:12:50.814Z,12.76
2024-04-06T08:13:50.799Z,12.81
2024-04-06T08:14:50.834Z,12.89
2024-04-06T08:15:50.930Z,12.95
2024-04-06T08:16:50.771Z,13.01
2024-04-06T08:17:50.756Z,13.04
2024-04-06T08:18:50.703Z,13.10
2024-04-06T08:19:50.755Z,13.12
2024-04-06T08:20:50.743Z,13.16
2024-04-06T08:21:50.684Z,13.17
2024-04-06T08:22:50.696Z,13.21
2024-04-06T08:23:50.696Z,13.24
2024-04-06T08:24:50.678Z,13.27
2024-04-06T08:25:50.659Z,13.35
2024-04-06T08:26:50.642Z,13.39
2024-04-06T08:27:50.644Z,13.41
2024-04-06T08:28:50.651Z,13.46
2024-04-06T08:29:50.634Z,13.47
2024-04-06T08:30:50.599Z,13.48
2024-04-06T08:31:50.608Z,13.48
2024-04-06T08:32:50.591Z,13.50
2024-04-06T08:33:50.584Z,13.51
2024-04-06T08:34:50.576Z,13.53
2024-04-06T08:35:50.558Z,13.55
2024-04-06T08:36:50.551Z,13.61
2024-04-06T08:37:50.549Z,13.63
2024-04-06T08:38:50.524Z,13.66
2024-04-06T08:39:50.513Z,13.72
2024-04-06T08:40:50.506Z,13.76
2024-04-06T08:41:50.479Z,13.81
2024-04-06T08:42:50.490Z,13.86
2024-04-06T08:43:50.474Z,13.88
2024-04-06T08:44:50.463Z,13.94
2024-04-06T08:45:50.439Z,13.99
2024-04-06T08:46:50.427Z,14.05
2024-04-06T08:47:50.422Z,14.12
2024-04-06T08:48:50.399Z,14.24
2024-04-06T08:49:50.398Z,14.36
2024-04-06T08:50:50.396Z,14.42
2024-04-06T08:51:50.364Z,14.48
2024-04-06T08:52:50.345Z,14.56
2024-04-06T08:53:50.350Z,14.61
2024-04-06T08:54:50.319Z,14.69
2024-04-06T08:55:50.319Z,14.78
2024-04-06T08:56:50.306Z,14.86
2024-04-06T08:57:50.312Z,14.93
2024-04-06T08:58:50.291Z,14.97
2024-04-06T08:59:50.285Z,15.03
2024-04-06T09:00:50.262Z,15.07
2024-04-06T09:01:50.262Z,15.13
2024-04-06T09:02:50.252Z,15.20
2024-04-06T09:03:50.246Z,15.30
2024-04-06T09:04:50.219Z,15.38
2024-04-06T09:05:50.204Z,15.49
2024-04-06T09:06:50.224Z,15.55
2024-04-06T09:07:50.186Z,15.62
2024-04-06T09:08:50.194Z,15.70
2024-04-06T09:09:50.156Z,15.76
2024-04-06T09:10:50.154Z,15.85
2024-04-06T09:11:50.130Z,15.93
2024-04-06T09:12:50.118Z,15.98
2024-04-06T09:13:50.119Z,16.04
2024-04-06T09:14:50.116Z,16.10
2024-04-06T09:15:50.098Z,16.16
2024-04-06T09:16:50.079Z,16.25
2024-04-06T09:17:50.052Z,16.30
2024-04-06T09:18:50.066Z,16.41
2024-04-06T09:19:50.056Z,16.50
2024-04-06T09:20:50.045Z,16.67
2024-04-06T09:21:50.033Z,16.80
2024-04-06T09:22:50.021Z,16.88
2024-04-06T09:23:50.010Z,16.96
2024-04-06T09:24:49.999Z,17.03
2024-04-06T09:25:49.983Z,17.10
2024-04-06T09:26:49.979Z,17.20
2024-04-06T09:27:49.956Z,17.28
2024-04-06T09:28:49.949Z,17.35
2024-04-06T09:29:49.947Z,17.46
2024-04-06T09:30:49.935Z,17.63
2024-04-06T09:31:49.916Z,17.77
2024-04-06T09:32:49.901Z,17.94
2024-04-06T09:33:49.892Z,18.05
2024-04-06T09:34:49.887Z,18.19
2024-04-06T09:35:49.874Z,18.29
2024-04-06T09:36:49.852Z,18.38
2024-04-06T09:37:49.855Z,18.47
2024-04-06T09:38:49.829Z,18.49
2024-04-06T09:39:49.824Z,18.54
2024-04-06T09:40:49.815Z,18.60
2024-04-06T09:41:49.811Z,18.68
2024-04-06T09:42:49.790Z,18.75
2024-04-06T09:43:49.791Z,18.84
2024-04-06T09:44:49.769Z,18.89
2024-04-06T09:45:49.773Z,18.94
2024-04-06T09:46:49.759Z,19.01
2024-04-06T09:47:49.743Z,19.07
2024-04-06T09:48:49.732Z,19.12
2024-04-06T09:49:49.685Z,19.13
2024-04-06T09:50:49.729Z,19.13
2024-04-06T09:51:49.696Z,19.16
2024-04-06T09:52:49.682Z,19.24
2024-04-06T09:53:49.671Z,19.30
2024-04-06T09:54:49.660Z,19.39
2024-04-06T09:55:49.626Z,19.49
2024-04-06T09:56:49.648Z,19.58
2024-04-06T09:57:49.613Z,19.65
2024-04-06T09:58:49.627Z,19.80
2024-04-06T09:59:49.600Z,19.89
2024-04-06T10:00:49.588Z,20.02
2024-04-06T10:01:49.555Z,20.15
2024-04-06T10:02:49.551Z,20.27
2024-04-06T10:03:49.523Z,20.40
2024-04-06T10:04:49.530Z,20.50
2024-04-06T10:05:49.503Z,20.58
2024-04-06T10:06:49.512Z,20.69
2024-04-06T10:07:49.501Z,20.79
2024-04-06T10:08:49.501Z,20.90
2024-04-06T10:09:49.474Z,20.98
2024-04-06T10:10:49.480Z,21.06
2024-04-06T10:11:49.465Z,21.18
2024-04-06T10:12:49.442Z,21.30
2024-04-06T10:13:49.487Z,21.42
2024-04-06T10:14:49.413Z,21.52
2024-04-06T10:15:49.428Z,21.63
2024-04-06T10:16:49.391Z,21.71
2024-04-06T10:17:49.415Z,21.82
2024-04-06T10:18:49.443Z,21.98
2024-04-06T10:19:49.363Z,22.05
2024-04-06T10:20:49.335Z,22.09
2024-04-06T10:21:49.344Z,22.17
2024-04-06T10:22:49.344Z,22.21
2024-04-06T10:23:49.344Z,22.24
2024-04-06T10:24:49.326Z,22.26
2024-04-06T10:25:49.316Z,22.26
2024-04-06T10:26:49.297Z,22.30
2024-04-06T10:27:49.289Z,22.31
2024-04-06T10:28:49.278Z,22.35
2024-04-06T10:29:49.274Z,22.36
2024-04-06T10:30:49.256Z,22.38
2024-04-06T10:31:49.334Z,22.39
2024-04-06T10:32:49.227Z,22.45
2024-04-06T10:33:49.215Z,22.48
2024-04-06T10:34:51.016Z,22.54
2024-04-06T10:35:49.211Z,22.60
2024-04-06T10:36:49.175Z,22.69
2024-04-06T10:37:49.180Z,22.78
2024-04-06T10:38:49.174Z,22.85
2024-04-06T10:39:49.162Z,22.93
2024-04-06T10:40:49.143Z,22.99
2024-04-06T10:41:49.135Z,23.04
2024-04-06T10:42:49.128Z,23.14
2024-04-06T10:43:49.107Z,23.21
2024-04-06T10:44:49.088Z,23.29
2024-04-06T10:45:49.087Z,23.38
2024-04-06T10:46:49.079Z,23.44
2024-04-06T10:47:49.075Z,23.50
2024-04-06T10:48:49.038Z,23.54
2024-04-06T10:49:49.038Z,23.56
2024-04-06T10:50:49.028Z,23.56
2024-04-06T10:51:49.038Z,23.54
2024-04-06T10:52:49.012Z,23.53
2024-04-06T10:53:49.007Z,23.49
2024-04-06T10:54:48.959Z,23.44
2024-04-06T10:55:48.981Z,23.41
2024-04-06T10:56:48.936Z,23.41
2024-04-06T10:57:48.948Z,23.39
2024-04-06T10:58:48.955Z,23.38
2024-04-06T10:59:48.927Z,23.39
2024-04-06T11:00:48.912Z,23.42
2024-04-06T11:01:48.894Z,23.45
2024-04-06T11:02:48.912Z,23.45
2024-04-06T11:03:48.867Z,23.47
2024-04-06T11:04:48.861Z,23.50
2024-04-06T11:05:48.849Z,23.53
2024-04-06T11:06:48.978Z,23.56
2024-04-06T11:07:48.841Z,23.60
2024-04-06T11:08:48.807Z,23.64
2024-04-06T11:09:48.808Z,23.68
2024-04-06T11:10:48.797Z,23.74
2024-04-06T11:11:48.795Z,23.79
2024-04-06T11:12:48.776Z,23.84
2024-04-06T11:13:48.776Z,23.87
2024-04-06T11:14:48.805Z,23.93
2024-04-06T11:15:48.743Z,23.97
2024-04-06T11:16:48.805Z,24.02
2024-04-06T11:17:48.729Z,23.97
2024-04-06T11:18:49.805Z,24.02
2024-04-06T11:19:48.748Z,24.09
2024-04-06T11:20:48.695Z,24.12
2024-04-06T11:21:48.679Z,24.19
2024-04-06T11:22:48.707Z,24.26
2024-04-06T11:23:48.665Z,24.29
2024-04-06T11:24:48.643Z,24.34
2024-04-06T11:25:48.626Z,24.41
2024-04-06T11:26:48.643Z,24.44
2024-04-06T11:27:48.596Z,24.51
2024-04-06T11:28:48.594Z,24.59
2024-04-06T11:29:48.568Z,24.67
2024-04-06T11:30:48.559Z,24.74
2024-04-06T11:31:48.557Z,24.82
2024-04-06T11:32:48.550Z,24.84
2024-04-06T11:33:48.523Z,24.90
2024-04-06T11:34:48.522Z,24.90
2024-04-06T11:35:48.523Z,24.93
2024-04-06T11:36:48.517Z,24.94
2024-04-06T11:37:48.489Z,24.98
2024-04-06T11:38:48.492Z,25.02
2024-04-06T11:39:48.500Z,25.04
2024-04-06T11:40:48.440Z,25.04
2024-04-06T11:41:48.454Z,25.08
2024-04-06T11:42:48.597Z,25.14
2024-04-06T11:43:48.424Z,25.17
2024-04-06T11:44:48.412Z,25.22
2024-04-06T11:45:48.416Z,25.27
2024-04-06T11:46:48.384Z,25.30
2024-04-06T11:47:48.389Z,25.36
2024-04-06T11:48:48.388Z,25.41
2024-04-06T11:49:48.355Z,25.45
2024-04-06T11:50:48.357Z,25.46
2024-04-06T11:51:48.340Z,25.44
2024-04-06T11:52:48.334Z,25.48
2024-04-06T11:53:51.071Z,25.49
2024-04-06T11:54:48.303Z,25.51
2024-04-06T11:55:48.274Z,25.54
2024-04-06T11:56:48.347Z,25.56
2024-04-06T11:57:48.263Z,25.57
2024-04-06T11:58:48.259Z,25.61
2024-04-06T11:59:48.255Z,25.63
2024-04-06T12:00:48.228Z,25.69
2024-04-06T12:01:48.232Z,25.72
2024-04-06T12:02:48.248Z,25.72
2024-04-06T12:03:48.193Z,25.78
2024-04-06T12:04:48.225Z,25.82
2024-04-06T12:05:48.172Z,25.89
2024-04-06T12:06:48.157Z,25.93
2024-04-06T12:07:48.163Z,25.97
2024-04-06T12:08:48.147Z,26.00
2024-04-06T12:09:48.127Z,26.04
2024-04-06T12:10:48.159Z,26.08
2024-04-06T12:11:48.088Z,26.09
2024-04-06T12:12:48.327Z,26.12
2024-04-06T12:13:48.080Z,26.16
2024-04-06T12:14:48.085Z,26.19
2024-04-06T12:15:48.067Z,26.13
2024-04-06T12:16:48.027Z,26.16
2024-04-06T12:17:48.042Z,26.20
2024-04-06T12:18:48.049Z,26.21
2024-04-06T12:19:48.013Z,26.28
2024-04-06T12:20:48.025Z,26.32
2024-04-06T12:21:48.009Z,26.34
2024-04-06T12:22:47.988Z,26.38
2024-04-06T12:23:47.955Z,26.41
2024-04-06T12:24:47.990Z,26.41
2024-04-06T12:25:47.929Z,26.44
2024-04-06T12:26:47.947Z,26.47
2024-04-06T12:27:47.938Z,26.51
2024-04-06T12:28:47.924Z,26.53
2024-04-06T12:29:47.905Z,26.54
2024-04-06T12:30:47.880Z,26.57
2024-04-06T12:31:47.853Z,26.54
2024-04-06T12:32:47.869Z,26.59
2024-04-06T12:33:47.843Z,26.61
2024-04-06T12:34:47.846Z,26.68
2024-04-06T12:35:47.809Z,26.72
2024-04-06T12:36:47.845Z,26.78
2024-04-06T12:37:47.806Z,26.84
2024-04-06T12:38:47.788Z,26.90
2024-04-06T12:39:47.761Z,26.97
2024-04-06T12:40:47.791Z,27.03
2024-04-06T12:41:47.761Z,27.09
2024-04-06T12:42:47.759Z,27.13
2024-04-06T12:43:47.759Z,27.20
2024-04-06T12:44:47.737Z,27.23
2024-04-06T12:45:47.715Z,27.21
2024-04-06T12:46:47.721Z,27.28
2024-04-06T12:47:47.714Z,27.35
2024-04-06T12:48:47.695Z,27.45
2024-04-06T12:49:47.674Z,27.52
2024-04-06T12:50:47.677Z,27.63
2024-04-06T12:51:47.658Z,27.71
2024-04-06T12:52:47.676Z,27.78
2024-04-06T12:53:47.667Z,27.84
2024-04-06T12:54:47.617Z,27.91
2024-04-06T12:55:47.605Z,28.01
2024-04-06T12:56:50.522Z,28.08
2024-04-06T12:57:47.562Z,28.17
2024-04-06T12:58:47.585Z,28.27
2024-04-06T12:59:47.557Z,28.39
2024-04-06T13:00:47.555Z,28.45
2024-04-06T13:01:47.569Z,28.55
2024-04-06T13:02:47.544Z,28.65
2024-04-06T13:03:56.579Z,28.69
2024-04-06T13:04:47.523Z,28.70
2024-04-06T13:05:47.506Z,28.70
2024-04-06T13:06:47.502Z,28.73
2024-04-06T13:07:50.454Z,28.74
2024-04-06T13:08:47.489Z,28.77
2024-04-06T13:09:47.461Z,28.83
2024-04-06T13:10:47.460Z,28.95
2024-04-06T13:11:47.445Z,29.07
2024-04-06T13:12:47.433Z,29.15
2024-04-06T13:13:47.417Z,29.26
2024-04-06T13:14:47.423Z,29.41
2024-04-06T13:15:47.403Z,29.54